sensor_id;sensor_type;location;lat;lon;timestamp;temperature;humidity
19292;DHT22;9779;51.756;7.450;2022-09-27T00:01:56;10.80;99.90
19292;DHT22;9779;51.756;7.450;2022-09-27T00:04:22;10.80;99.90
19292;DHT22;9779;51.756;7.450;2022-09-27T00:06:47;10.70;99.90
19292;DHT22;9779;51.756;7.450;2022-09-27T00:09:13;10.70;99.90
19292;DHT22;9779;51.756;7.450;2022-09-27T00:11:40;10.70;99.90
19292;DHT22;9779;51.756;7.450;2022-09-27T00:14:10;10.70;99.90
19292;DHT22;9779;51.756;7.450;2022-09-27T00:16:38;10.70;99.90
19292;DHT22;9779;51.756;7.450;2022-09-27T00:19:13;10.70;99.90
19292;DHT22;9779;51.756;7.450;2022-09-27T00:21:40;10.70;99.90
19292;DHT22;9779;51.756;7.450;2022-09-27T00:24:06;10.70;99.90
19292;DHT22;9779;51.756;7.450;2022-09-27T00:26:31;10.70;99.90
19292;DHT22;9779;51.756;7.450;2022-09-27T00:28:57;10.70;99.90
19292;DHT22;9779;51.756;7.450;2022-09-27T00:31:28;10.70;99.90
19292;DHT22;9779;51.756;7.450;2022-09-27T00:33:55;10.60;99.90
19292;DHT22;9779;51.756;7.450;2022-09-27T00:36:22;10.70;99.90
19292;DHT22;9779;51.756;7.450;2022-09-27T00:38:49;10.60;99.90
19292;DHT22;9779;51.756;7.450;2022-09-27T00:41:26;10.60;99.90
19292;DHT22;9779;51.756;7.450;2022-09-27T00:44:46;10.60;99.90
19292;DHT22;9779;51.756;7.450;2022-09-27T00:47:13;10.60;99.90
19292;DHT22;9779;51.756;7.450;2022-09-27T00:49:41;10.50;99.90
19292;DHT22;9779;51.756;7.450;2022-09-27T00:55:03;10.50;99.90
19292;DHT22;9779;51.756;7.450;2022-09-27T00:57:31;10.50;99.90
19292;DHT22;9779;51.756;7.450;2022-09-27T01:00:01;10.50;99.90
19292;DHT22;9779;51.756;7.450;2022-09-27T01:02:28;10.40;99.90
19292;DHT22;9779;51.756;7.450;2022-09-27T01:04:54;10.50;99.90
19292;DHT22;9779;51.756;7.450;2022-09-27T01:07:21;10.40;99.90
19292;DHT22;9779;51.756;7.450;2022-09-27T01:09:46;10.50;99.90
19292;DHT22;9779;51.756;7.450;2022-09-27T01:15:16;10.40;99.90
19292;DHT22;9779;51.756;7.450;2022-09-27T01:18:26;10.40;99.90
19292;DHT22;9779;51.756;7.450;2022-09-27T01:29:27;10.40;99.90
19292;DHT22;9779;51.756;7.450;2022-09-27T01:32:08;10.30;99.90
19292;DHT22;9779;51.756;7.450;2022-09-27T01:37:24;10.30;99.90
19292;DHT22;9779;51.756;7.450;2022-09-27T01:42:57;10.30;99.90
19292;DHT22;9779;51.756;7.450;2022-09-27T01:45:35;10.30;99.90
19292;DHT22;9779;51.756;7.450;2022-09-27T01:48:06;10.30;99.90
19292;DHT22;9779;51.756;7.450;2022-09-27T01:50:43;10.40;99.90
19292;DHT22;9779;51.756;7.450;2022-09-27T01:53:16;10.40;99.90
19292;DHT22;9779;51.756;7.450;2022-09-27T01:55:43;10.40;99.90
19292;DHT22;9779;51.756;7.450;2022-09-27T01:58:33;10.30;99.90
19292;DHT22;9779;51.756;7.450;2022-09-27T02:01:02;10.30;99.90
19292;DHT22;9779;51.756;7.450;2022-09-27T02:03:36;10.30;99.90
19292;DHT22;9779;51.756;7.450;2022-09-27T02:06:14;10.30;99.90
19292;DHT22;9779;51.756;7.450;2022-09-27T02:08:41;10.30;99.90
19292;DHT22;9779;51.756;7.450;2022-09-27T02:11:09;10.30;99.90
19292;DHT22;9779;51.756;7.450;2022-09-27T02:13:46;10.30;99.90
19292;DHT22;9779;51.756;7.450;2022-09-27T02:22:12;10.20;99.90
19292;DHT22;9779;51.756;7.450;2022-09-27T02:24:58;10.20;99.90
19292;DHT22;9779;51.756;7.450;2022-09-27T02:27:28;10.20;99.90
19292;DHT22;9779;51.756;7.450;2022-09-27T02:30:15;10.20;99.90
19292;DHT22;9779;51.756;7.450;2022-09-27T02:32:42;10.20;99.90
19292;DHT22;9779;51.756;7.450;2022-09-27T02:35:14;10.10;99.90
19292;DHT22;9779;51.756;7.450;2022-09-27T02:37:40;10.20;99.90
19292;DHT22;9779;51.756;7.450;2022-09-27T02:40:06;10.20;99.90
19292;DHT22;9779;51.756;7.450;2022-09-27T02:42:32;10.20;99.90
19292;DHT22;9779;51.756;7.450;2022-09-27T02:44:58;10.20;99.90
19292;DHT22;9779;51.756;7.450;2022-09-27T02:50:34;10.20;99.90
19292;DHT22;9779;51.756;7.450;2022-09-27T03:01:11;10.10;99.90
19292;DHT22;9779;51.756;7.450;2022-09-27T03:06:25;10.10;99.90
19292;DHT22;9779;51.756;7.450;2022-09-27T03:08:52;10.00;99.90
19292;DHT22;9779;51.756;7.450;2022-09-27T03:11:17;10.00;99.90
19292;DHT22;9779;51.756;7.450;2022-09-27T03:13:44;10.00;99.90
19292;DHT22;9779;51.756;7.450;2022-09-27T03:16:10;10.00;99.90
19292;DHT22;9779;51.756;7.450;2022-09-27T03:18:36;9.90;99.90
19292;DHT22;9779;51.756;7.450;2022-09-27T03:21:01;9.90;99.90
19292;DHT22;9779;51.756;7.450;2022-09-27T03:23:27;9.90;99.90
19292;DHT22;9779;51.756;7.450;2022-09-27T03:25:53;9.90;99.90
19292;DHT22;9779;51.756;7.450;2022-09-27T03:28:19;9.90;99.90
19292;DHT22;9779;51.756;7.450;2022-09-27T03:30:45;9.90;99.90
19292;DHT22;9779;51.756;7.450;2022-09-27T03:33:11;9.90;99.90
19292;DHT22;9779;51.756;7.450;2022-09-27T03:35:38;9.80;99.90
19292;DHT22;9779;51.756;7.450;2022-09-27T03:38:04;9.90;99.90
19292;DHT22;9779;51.756;7.450;2022-09-27T03:40:31;9.80;99.90
19292;DHT22;9779;51.756;7.450;2022-09-27T03:42:57;9.80;99.90
19292;DHT22;9779;51.756;7.450;2022-09-27T03:45:23;9.80;99.90
19292;DHT22;9779;51.756;7.450;2022-09-27T03:47:48;9.80;99.90
19292;DHT22;9779;51.756;7.450;2022-09-27T03:50:14;9.80;99.90
19292;DHT22;9779;51.756;7.450;2022-09-27T03:52:41;9.80;99.90
19292;DHT22;9779;51.756;7.450;2022-09-27T03:55:07;9.80;99.90
19292;DHT22;9779;51.756;7.450;2022-09-27T03:57:33;9.70;99.90
19292;DHT22;9779;51.756;7.450;2022-09-27T03:59:58;9.70;99.90
19292;DHT22;9779;51.756;7.450;2022-09-27T04:02:26;9.70;99.90
19292;DHT22;9779;51.756;7.450;2022-09-27T04:04:51;9.70;99.90
19292;DHT22;9779;51.756;7.450;2022-09-27T04:07:17;9.70;99.90
19292;DHT22;9779;51.756;7.450;2022-09-27T04:09:43;9.60;99.90
19292;DHT22;9779;51.756;7.450;2022-09-27T04:12:10;9.70;99.90
19292;DHT22;9779;51.756;7.450;2022-09-27T04:14:36;9.70;99.90
19292;DHT22;9779;51.756;7.450;2022-09-27T04:17:02;9.60;99.90
19292;DHT22;9779;51.756;7.450;2022-09-27T04:19:27;9.60;99.90
19292;DHT22;9779;51.756;7.450;2022-09-27T04:21:53;9.60;99.90
19292;DHT22;9779;51.756;7.450;2022-09-27T04:24:18;9.50;99.90
19292;DHT22;9779;51.756;7.450;2022-09-27T04:26:44;9.60;99.90
19292;DHT22;9779;51.756;7.450;2022-09-27T04:29:10;9.50;99.90
19292;DHT22;9779;51.756;7.450;2022-09-27T04:31:36;9.50;99.90
19292;DHT22;9779;51.756;7.450;2022-09-27T04:34:05;9.50;99.90
19292;DHT22;9779;51.756;7.450;2022-09-27T04:36:31;9.50;99.90
19292;DHT22;9779;51.756;7.450;2022-09-27T04:38:59;9.50;99.90
19292;DHT22;9779;51.756;7.450;2022-09-27T04:41:25;9.40;99.90
19292;DHT22;9779;51.756;7.450;2022-09-27T04:43:53;9.50;99.90
19292;DHT22;9779;51.756;7.450;2022-09-27T04:46:19;9.50;99.90
19292;DHT22;9779;51.756;7.450;2022-09-27T04:48:46;9.50;99.90
19292;DHT22;9779;51.756;7.450;2022-09-27T04:51:11;9.50;99.90
19292;DHT22;9779;51.756;7.450;2022-09-27T04:53:37;9.50;99.90
19292;DHT22;9779;51.756;7.450;2022-09-27T04:56:03;9.50;99.90
19292;DHT22;9779;51.756;7.450;2022-09-27T04:58:31;9.50;99.90
19292;DHT22;9779;51.756;7.450;2022-09-27T05:01:00;9.50;99.90
19292;DHT22;9779;51.756;7.450;2022-09-27T05:03:27;9.50;99.90
19292;DHT22;9779;51.756;7.450;2022-09-27T05:05:53;9.50;99.90
19292;DHT22;9779;51.756;7.450;2022-09-27T05:08:19;9.50;99.90
19292;DHT22;9779;51.756;7.450;2022-09-27T05:10:45;9.40;99.90
19292;DHT22;9779;51.756;7.450;2022-09-27T05:13:12;9.40;99.90
19292;DHT22;9779;51.756;7.450;2022-09-27T05:15:37;9.40;99.90
19292;DHT22;9779;51.756;7.450;2022-09-27T05:18:04;9.40;99.90
19292;DHT22;9779;51.756;7.450;2022-09-27T05:20:29;9.40;99.90
19292;DHT22;9779;51.756;7.450;2022-09-27T05:22:55;9.40;99.90
19292;DHT22;9779;51.756;7.450;2022-09-27T05:25:21;9.40;99.90
19292;DHT22;9779;51.756;7.450;2022-09-27T05:27:48;9.40;99.90
19292;DHT22;9779;51.756;7.450;2022-09-27T05:30:13;9.40;99.90
19292;DHT22;9779;51.756;7.450;2022-09-27T05:32:42;9.40;99.90
19292;DHT22;9779;51.756;7.450;2022-09-27T05:35:08;9.50;99.90
19292;DHT22;9779;51.756;7.450;2022-09-27T05:37:34;9.40;99.90
19292;DHT22;9779;51.756;7.450;2022-09-27T05:40:00;9.40;99.90
19292;DHT22;9779;51.756;7.450;2022-09-27T05:42:26;9.40;99.90
19292;DHT22;9779;51.756;7.450;2022-09-27T05:44:52;9.40;99.90
19292;DHT22;9779;51.756;7.450;2022-09-27T05:47:17;9.40;99.90
19292;DHT22;9779;51.756;7.450;2022-09-27T05:49:43;9.50;99.90
19292;DHT22;9779;51.756;7.450;2022-09-27T05:52:09;9.40;99.90
19292;DHT22;9779;51.756;7.450;2022-09-27T05:54:35;9.40;99.90
19292;DHT22;9779;51.756;7.450;2022-09-27T05:57:01;9.40;99.90
19292;DHT22;9779;51.756;7.450;2022-09-27T05:59:27;9.40;99.90
19292;DHT22;9779;51.756;7.450;2022-09-27T06:01:53;9.50;99.90
19292;DHT22;9779;51.756;7.450;2022-09-27T06:04:19;9.40;99.90
19292;DHT22;9779;51.756;7.450;2022-09-27T06:06:46;9.40;99.90
19292;DHT22;9779;51.756;7.450;2022-09-27T06:09:13;9.40;99.90
19292;DHT22;9779;51.756;7.450;2022-09-27T06:11:39;9.40;99.90
19292;DHT22;9779;51.756;7.450;2022-09-27T06:14:05;9.40;99.90
19292;DHT22;9779;51.756;7.450;2022-09-27T06:16:30;9.40;99.90
19292;DHT22;9779;51.756;7.450;2022-09-27T06:18:56;9.40;99.90
19292;DHT22;9779;51.756;7.450;2022-09-27T06:21:22;9.40;99.90
19292;DHT22;9779;51.756;7.450;2022-09-27T06:23:48;9.40;99.90
19292;DHT22;9779;51.756;7.450;2022-09-27T06:26:14;9.50;99.90
19292;DHT22;9779;51.756;7.450;2022-09-27T06:28:42;9.50;99.90
19292;DHT22;9779;51.756;7.450;2022-09-27T06:31:07;9.40;99.90
19292;DHT22;9779;51.756;7.450;2022-09-27T06:33:34;9.40;99.90
19292;DHT22;9779;51.756;7.450;2022-09-27T06:36:04;9.40;99.90
19292;DHT22;9779;51.756;7.450;2022-09-27T06:38:30;9.50;99.90
19292;DHT22;9779;51.756;7.450;2022-09-27T06:41:03;9.50;99.90
19292;DHT22;9779;51.756;7.450;2022-09-27T06:43:30;9.50;99.90
19292;DHT22;9779;51.756;7.450;2022-09-27T06:45:59;9.50;99.90
19292;DHT22;9779;51.756;7.450;2022-09-27T06:48:33;9.50;99.90
19292;DHT22;9779;51.756;7.450;2022-09-27T06:51:02;9.50;99.90
19292;DHT22;9779;51.756;7.450;2022-09-27T06:53:27;9.60;99.90
19292;DHT22;9779;51.756;7.450;2022-09-27T06:55:59;9.60;99.90
19292;DHT22;9779;51.756;7.450;2022-09-27T06:58:26;9.60;99.90
19292;DHT22;9779;51.756;7.450;2022-09-27T07:01:10;9.60;99.90
19292;DHT22;9779;51.756;7.450;2022-09-27T07:03:36;9.60;99.90
19292;DHT22;9779;51.756;7.450;2022-09-27T07:06:07;9.50;99.90
19292;DHT22;9779;51.756;7.450;2022-09-27T07:08:35;9.50;99.90
19292;DHT22;9779;51.756;7.450;2022-09-27T07:11:03;9.50;99.90
19292;DHT22;9779;51.756;7.450;2022-09-27T07:13:29;9.50;99.90
19292;DHT22;9779;51.756;7.450;2022-09-27T07:15:57;9.50;99.90
19292;DHT22;9779;51.756;7.450;2022-09-27T07:18:23;9.50;99.90
19292;DHT22;9779;51.756;7.450;2022-09-27T07:20:48;9.50;99.90
19292;DHT22;9779;51.756;7.450;2022-09-27T07:23:15;9.50;99.90
19292;DHT22;9779;51.756;7.450;2022-09-27T07:25:41;9.40;99.90
19292;DHT22;9779;51.756;7.450;2022-09-27T07:28:12;9.40;99.90
19292;DHT22;9779;51.756;7.450;2022-09-27T07:30:38;9.50;99.90
19292;DHT22;9779;51.756;7.450;2022-09-27T07:33:05;9.40;99.90
19292;DHT22;9779;51.756;7.450;2022-09-27T07:35:31;9.40;99.90
19292;DHT22;9779;51.756;7.450;2022-09-27T07:37:57;9.40;99.90
19292;DHT22;9779;51.756;7.450;2022-09-27T07:40:24;9.40;99.90
19292;DHT22;9779;51.756;7.450;2022-09-27T07:42:57;9.40;99.90
19292;DHT22;9779;51.756;7.450;2022-09-27T07:45:23;9.40;99.90
19292;DHT22;9779;51.756;7.450;2022-09-27T07:47:49;9.30;99.90
19292;DHT22;9779;51.756;7.450;2022-09-27T07:50:14;9.20;99.90
19292;DHT22;9779;51.756;7.450;2022-09-27T07:52:42;9.20;99.90
19292;DHT22;9779;51.756;7.450;2022-09-27T07:55:09;9.30;99.90
19292;DHT22;9779;51.756;7.450;2022-09-27T07:57:36;9.30;99.90
19292;DHT22;9779;51.756;7.450;2022-09-27T08:00:07;9.30;99.90
19292;DHT22;9779;51.756;7.450;2022-09-27T08:02:34;9.40;99.90
19292;DHT22;9779;51.756;7.450;2022-09-27T08:04:59;9.50;99.90
19292;DHT22;9779;51.756;7.450;2022-09-27T08:07:25;9.50;99.90
19292;DHT22;9779;51.756;7.450;2022-09-27T08:09:51;9.60;99.90
19292;DHT22;9779;51.756;7.450;2022-09-27T08:12:17;9.50;99.90
19292;DHT22;9779;51.756;7.450;2022-09-27T08:14:46;9.60;99.90
19292;DHT22;9779;51.756;7.450;2022-09-27T08:17:12;9.70;99.90
19292;DHT22;9779;51.756;7.450;2022-09-27T08:19:38;9.70;99.90
19292;DHT22;9779;51.756;7.450;2022-09-27T08:22:07;9.70;99.90
19292;DHT22;9779;51.756;7.450;2022-09-27T08:24:33;9.80;99.90
19292;DHT22;9779;51.756;7.450;2022-09-27T08:26:59;9.80;99.90
19292;DHT22;9779;51.756;7.450;2022-09-27T08:29:25;9.90;99.90
19292;DHT22;9779;51.756;7.450;2022-09-27T08:31:51;10.00;99.90
19292;DHT22;9779;51.756;7.450;2022-09-27T08:34:18;10.00;99.90
19292;DHT22;9779;51.756;7.450;2022-09-27T08:36:43;10.00;99.90
19292;DHT22;9779;51.756;7.450;2022-09-27T08:39:09;9.90;99.90
19292;DHT22;9779;51.756;7.450;2022-09-27T08:47:15;9.90;99.90
19292;DHT22;9779;51.756;7.450;2022-09-27T08:50:01;10.00;99.90
19292;DHT22;9779;51.756;7.450;2022-09-27T08:52:39;10.20;99.90
19292;DHT22;9779;51.756;7.450;2022-09-27T08:55:24;10.30;99.90
19292;DHT22;9779;51.756;7.450;2022-09-27T08:57:55;10.30;99.90
19292;DHT22;9779;51.756;7.450;2022-09-27T09:00:28;10.30;99.90
19292;DHT22;9779;51.756;7.450;2022-09-27T09:02:55;10.20;99.90
19292;DHT22;9779;51.756;7.450;2022-09-27T09:05:31;10.30;99.90
19292;DHT22;9779;51.756;7.450;2022-09-27T09:10:44;10.40;99.90
19292;DHT22;9779;51.756;7.450;2022-09-27T09:16:49;10.60;99.90
19292;DHT22;9779;51.756;7.450;2022-09-27T09:22:27;10.50;99.90
19292;DHT22;9779;51.756;7.450;2022-09-27T09:25:21;10.60;99.90
19292;DHT22;9779;51.756;7.450;2022-09-27T09:30:19;10.60;99.90
19292;DHT22;9779;51.756;7.450;2022-09-27T09:33:12;10.60;99.90
19292;DHT22;9779;51.756;7.450;2022-09-27T09:38:43;10.70;99.90
19292;DHT22;9779;51.756;7.450;2022-09-27T09:43:53;10.80;99.90
19292;DHT22;9779;51.756;7.450;2022-09-27T09:46:27;10.80;99.90
19292;DHT22;9779;51.756;7.450;2022-09-27T09:49:02;10.80;99.90
19292;DHT22;9779;51.756;7.450;2022-09-27T09:51:39;10.70;99.90
19292;DHT22;9779;51.756;7.450;2022-09-27T09:56:43;10.70;99.90
19292;DHT22;9779;51.756;7.450;2022-09-27T09:59:14;10.60;99.90
19292;DHT22;9779;51.756;7.450;2022-09-27T10:01:46;10.60;99.90
19292;DHT22;9779;51.756;7.450;2022-09-27T10:06:47;10.60;99.90
19292;DHT22;9779;51.756;7.450;2022-09-27T10:09:16;10.70;99.90
19292;DHT22;9779;51.756;7.450;2022-09-27T10:11:46;10.60;99.90
19292;DHT22;9779;51.756;7.450;2022-09-27T10:14:18;10.70;99.90
19292;DHT22;9779;51.756;7.450;2022-09-27T10:16:57;10.60;99.90
19292;DHT22;9779;51.756;7.450;2022-09-27T10:19:31;10.70;99.90
19292;DHT22;9779;51.756;7.450;2022-09-27T10:22:01;10.60;99.90
19292;DHT22;9779;51.756;7.450;2022-09-27T10:24:27;10.70;99.90
19292;DHT22;9779;51.756;7.450;2022-09-27T10:26:58;10.70;99.90
19292;DHT22;9779;51.756;7.450;2022-09-27T10:29:30;10.80;99.90
19292;DHT22;9779;51.756;7.450;2022-09-27T10:31:56;10.80;99.90
19292;DHT22;9779;51.756;7.450;2022-09-27T10:39:42;10.80;99.90
19292;DHT22;9779;51.756;7.450;2022-09-27T10:42:29;10.70;99.90
19292;DHT22;9779;51.756;7.450;2022-09-27T10:44:56;10.90;99.90
19292;DHT22;9779;51.756;7.450;2022-09-27T10:47:23;11.00;99.90
19292;DHT22;9779;51.756;7.450;2022-09-27T10:49:50;11.10;99.90
19292;DHT22;9779;51.756;7.450;2022-09-27T10:52:21;11.20;99.90
19292;DHT22;9779;51.756;7.450;2022-09-27T10:55:21;11.30;99.90
19292;DHT22;9779;51.756;7.450;2022-09-27T10:57:49;11.30;99.90
19292;DHT22;9779;51.756;7.450;2022-09-27T11:00:25;11.30;99.90
19292;DHT22;9779;51.756;7.450;2022-09-27T11:03:02;11.20;99.90
19292;DHT22;9779;51.756;7.450;2022-09-27T11:05:32;11.30;99.90
19292;DHT22;9779;51.756;7.450;2022-09-27T11:08:00;11.20;99.90
19292;DHT22;9779;51.756;7.450;2022-09-27T11:10:31;11.20;99.90
19292;DHT22;9779;51.756;7.450;2022-09-27T11:25:02;11.50;99.90
19292;DHT22;9779;51.756;7.450;2022-09-27T11:33:02;11.70;99.90
19292;DHT22;9779;51.756;7.450;2022-09-27T11:35:44;11.80;99.90
19292;DHT22;9779;51.756;7.450;2022-09-27T11:41:06;11.50;99.90
19292;DHT22;9779;51.756;7.450;2022-09-27T11:46:39;11.50;99.90
19292;DHT22;9779;51.756;7.450;2022-09-27T11:49:35;11.50;99.90
19292;DHT22;9779;51.756;7.450;2022-09-27T11:58:16;11.60;99.90
19292;DHT22;9779;51.756;7.450;2022-09-27T12:08:46;10.90;99.90
19292;DHT22;9779;51.756;7.450;2022-09-27T12:11:23;11.10;99.90
19292;DHT22;9779;51.756;7.450;2022-09-27T12:17:02;10.90;99.90
19292;DHT22;9779;51.756;7.450;2022-09-27T12:19:33;10.80;99.90
19292;DHT22;9779;51.756;7.450;2022-09-27T12:22:03;10.70;99.90
19292;DHT22;9779;51.756;7.450;2022-09-27T12:24:31;10.70;99.90
19292;DHT22;9779;51.756;7.450;2022-09-27T12:27:02;10.70;99.90
19292;DHT22;9779;51.756;7.450;2022-09-27T12:29:36;10.70;99.90
19292;DHT22;9779;51.756;7.450;2022-09-27T12:32:43;10.60;99.90
19292;DHT22;9779;51.756;7.450;2022-09-27T12:35:18;10.60;99.90
19292;DHT22;9779;51.756;7.450;2022-09-27T12:37:59;10.70;99.90
19292;DHT22;9779;51.756;7.450;2022-09-27T12:40:47;10.80;99.90
19292;DHT22;9779;51.756;7.450;2022-09-27T12:43:19;10.70;99.90
19292;DHT22;9779;51.756;7.450;2022-09-27T12:45:51;10.90;99.90
19292;DHT22;9779;51.756;7.450;2022-09-27T12:51:16;11.10;99.90
19292;DHT22;9779;51.756;7.450;2022-09-27T12:59:06;11.20;99.90
19292;DHT22;9779;51.756;7.450;2022-09-27T13:04:31;11.50;99.90
19292;DHT22;9779;51.756;7.450;2022-09-27T13:07:36;11.70;99.90
19292;DHT22;9779;51.756;7.450;2022-09-27T13:10:11;11.80;99.90
19292;DHT22;9779;51.756;7.450;2022-09-27T13:12:49;11.80;99.90
19292;DHT22;9779;51.756;7.450;2022-09-27T13:17:51;11.90;99.90
19292;DHT22;9779;51.756;7.450;2022-09-27T13:22:55;11.90;99.90
19292;DHT22;9779;51.756;7.450;2022-09-27T13:30:55;12.00;99.90
19292;DHT22;9779;51.756;7.450;2022-09-27T13:41:27;11.80;99.90
19292;DHT22;9779;51.756;7.450;2022-09-27T13:44:39;11.90;99.90
19292;DHT22;9779;51.756;7.450;2022-09-27T13:49:37;11.80;99.90
19292;DHT22;9779;51.756;7.450;2022-09-27T13:52:26;11.70;99.90
19292;DHT22;9779;51.756;7.450;2022-09-27T13:54:56;11.80;99.90
19292;DHT22;9779;51.756;7.450;2022-09-27T13:58:21;11.70;99.90
19292;DHT22;9779;51.756;7.450;2022-09-27T14:00:40;11.70;99.90
19292;DHT22;9779;51.756;7.450;2022-09-27T14:03:52;11.70;99.90
19292;DHT22;9779;51.756;7.450;2022-09-27T14:06:23;11.70;99.90
19292;DHT22;9779;51.756;7.450;2022-09-27T14:08:56;11.70;99.90
19292;DHT22;9779;51.756;7.450;2022-09-27T14:11:38;11.70;99.90
19292;DHT22;9779;51.756;7.450;2022-09-27T14:14:11;11.80;99.90
19292;DHT22;9779;51.756;7.450;2022-09-27T14:16:41;11.70;99.90
19292;DHT22;9779;51.756;7.450;2022-09-27T14:19:15;11.80;99.90
19292;DHT22;9779;51.756;7.450;2022-09-27T14:21:54;11.70;99.90
19292;DHT22;9779;51.756;7.450;2022-09-27T14:29:44;11.50;99.90
19292;DHT22;9779;51.756;7.450;2022-09-27T14:32:20;11.60;99.90
19292;DHT22;9779;51.756;7.450;2022-09-27T14:38:03;11.50;99.90
19292;DHT22;9779;51.756;7.450;2022-09-27T14:40:30;11.50;99.90
19292;DHT22;9779;51.756;7.450;2022-09-27T14:42:58;11.50;99.90
19292;DHT22;9779;51.756;7.450;2022-09-27T14:45:36;11.30;99.90
19292;DHT22;9779;51.756;7.450;2022-09-27T14:50:54;11.30;99.90
19292;DHT22;9779;51.756;7.450;2022-09-27T14:53:25;11.30;99.90
19292;DHT22;9779;51.756;7.450;2022-09-27T14:55:51;11.40;99.90
19292;DHT22;9779;51.756;7.450;2022-09-27T14:58:20;11.50;99.90
19292;DHT22;9779;51.756;7.450;2022-09-27T15:00:47;11.50;99.90
19292;DHT22;9779;51.756;7.450;2022-09-27T15:03:19;11.50;99.90
19292;DHT22;9779;51.756;7.450;2022-09-27T15:05:49;11.50;99.90
19292;DHT22;9779;51.756;7.450;2022-09-27T15:08:16;11.50;99.90
19292;DHT22;9779;51.756;7.450;2022-09-27T15:10:42;11.50;99.90
19292;DHT22;9779;51.756;7.450;2022-09-27T15:13:13;11.50;99.90
19292;DHT22;9779;51.756;7.450;2022-09-27T15:15:39;11.50;99.90
19292;DHT22;9779;51.756;7.450;2022-09-27T15:18:30;11.50;99.90
19292;DHT22;9779;51.756;7.450;2022-09-27T15:20:56;11.60;99.90
19292;DHT22;9779;51.756;7.450;2022-09-27T15:23:27;11.60;99.90
19292;DHT22;9779;51.756;7.450;2022-09-27T15:26:03;11.60;99.90
19292;DHT22;9779;51.756;7.450;2022-09-27T15:28:29;11.70;99.90
19292;DHT22;9779;51.756;7.450;2022-09-27T15:30:56;11.60;99.90
19292;DHT22;9779;51.756;7.450;2022-09-27T15:33:25;11.70;99.90
19292;DHT22;9779;51.756;7.450;2022-09-27T15:35:56;11.70;99.90
19292;DHT22;9779;51.756;7.450;2022-09-27T15:38:40;11.80;99.90
19292;DHT22;9779;51.756;7.450;2022-09-27T15:41:15;11.80;99.90
19292;DHT22;9779;51.756;7.450;2022-09-27T15:43:46;11.90;99.90
19292;DHT22;9779;51.756;7.450;2022-09-27T15:49:17;11.70;99.90
19292;DHT22;9779;51.756;7.450;2022-09-27T15:51:54;11.70;99.90
19292;DHT22;9779;51.756;7.450;2022-09-27T15:54:21;11.60;99.90
19292;DHT22;9779;51.756;7.450;2022-09-27T15:56:48;11.60;99.90
19292;DHT22;9779;51.756;7.450;2022-09-27T15:59:29;11.50;99.90
19292;DHT22;9779;51.756;7.450;2022-09-27T16:01:57;11.40;99.90
19292;DHT22;9779;51.756;7.450;2022-09-27T16:04:23;11.40;99.90
19292;DHT22;9779;51.756;7.450;2022-09-27T16:06:50;11.40;99.90
19292;DHT22;9779;51.756;7.450;2022-09-27T16:09:17;11.40;99.90
19292;DHT22;9779;51.756;7.450;2022-09-27T16:11:44;11.40;99.90
19292;DHT22;9779;51.756;7.450;2022-09-27T16:14:10;11.40;99.90
19292;DHT22;9779;51.756;7.450;2022-09-27T16:16:39;11.30;99.90
19292;DHT22;9779;51.756;7.450;2022-09-27T16:19:05;11.20;99.90
19292;DHT22;9779;51.756;7.450;2022-09-27T16:21:30;11.30;99.90
19292;DHT22;9779;51.756;7.450;2022-09-27T16:23:56;11.30;99.90
19292;DHT22;9779;51.756;7.450;2022-09-27T16:26:22;11.30;99.90
19292;DHT22;9779;51.756;7.450;2022-09-27T16:28:47;11.30;99.90
19292;DHT22;9779;51.756;7.450;2022-09-27T16:31:14;11.30;99.90
19292;DHT22;9779;51.756;7.450;2022-09-27T16:33:41;11.10;99.90
19292;DHT22;9779;51.756;7.450;2022-09-27T16:36:07;11.10;99.90
19292;DHT22;9779;51.756;7.450;2022-09-27T16:38:41;11.10;99.90
19292;DHT22;9779;51.756;7.450;2022-09-27T16:41:07;11.10;99.90
19292;DHT22;9779;51.756;7.450;2022-09-27T16:43:32;11.00;99.90
19292;DHT22;9779;51.756;7.450;2022-09-27T16:46:06;11.00;99.90
19292;DHT22;9779;51.756;7.450;2022-09-27T17:01:09;11.00;99.90
19292;DHT22;9779;51.756;7.450;2022-09-27T17:47:30;9.90;99.90
19292;DHT22;9779;51.756;7.450;2022-09-27T17:50:14;10.70;99.90
19292;DHT22;9779;51.756;7.450;2022-09-27T17:52:50;10.60;99.90
19292;DHT22;9779;51.756;7.450;2022-09-27T17:55:16;10.60;99.90
19292;DHT22;9779;51.756;7.450;2022-09-27T17:57:42;10.60;99.90
19292;DHT22;9779;51.756;7.450;2022-09-27T18:00:08;10.60;99.90
19292;DHT22;9779;51.756;7.450;2022-09-27T18:02:33;10.60;99.90
19292;DHT22;9779;51.756;7.450;2022-09-27T18:04:59;10.60;99.90
19292;DHT22;9779;51.756;7.450;2022-09-27T18:07:24;10.50;99.90
19292;DHT22;9779;51.756;7.450;2022-09-27T18:09:50;10.50;99.90
19292;DHT22;9779;51.756;7.450;2022-09-27T18:12:16;10.50;99.90
19292;DHT22;9779;51.756;7.450;2022-09-27T18:14:41;10.50;99.90
19292;DHT22;9779;51.756;7.450;2022-09-27T18:17:07;10.50;99.90
19292;DHT22;9779;51.756;7.450;2022-09-27T18:19:35;10.50;99.90
19292;DHT22;9779;51.756;7.450;2022-09-27T18:22:01;10.50;99.90
19292;DHT22;9779;51.756;7.450;2022-09-27T18:24:28;10.40;99.90
19292;DHT22;9779;51.756;7.450;2022-09-27T18:26:53;10.40;99.90
19292;DHT22;9779;51.756;7.450;2022-09-27T18:29:21;10.40;99.90
19292;DHT22;9779;51.756;7.450;2022-09-27T18:31:47;10.40;99.90
19292;DHT22;9779;51.756;7.450;2022-09-27T18:34:13;10.40;99.90
19292;DHT22;9779;51.756;7.450;2022-09-27T18:36:39;10.30;99.90
19292;DHT22;9779;51.756;7.450;2022-09-27T18:39:10;10.30;99.90
19292;DHT22;9779;51.756;7.450;2022-09-27T18:41:36;10.30;99.90
19292;DHT22;9779;51.756;7.450;2022-09-27T18:44:03;10.30;99.90
19292;DHT22;9779;51.756;7.450;2022-09-27T18:46:34;10.20;99.90
19292;DHT22;9779;51.756;7.450;2022-09-27T18:49:01;10.20;99.90
19292;DHT22;9779;51.756;7.450;2022-09-27T18:51:27;10.30;99.90
19292;DHT22;9779;51.756;7.450;2022-09-27T18:53:58;10.30;99.90
19292;DHT22;9779;51.756;7.450;2022-09-27T18:56:25;10.30;99.90
19292;DHT22;9779;51.756;7.450;2022-09-27T18:58:51;10.20;99.90
19292;DHT22;9779;51.756;7.450;2022-09-27T19:01:19;10.30;99.90
19292;DHT22;9779;51.756;7.450;2022-09-27T19:03:44;10.20;99.90
19292;DHT22;9779;51.756;7.450;2022-09-27T19:06:15;10.20;99.90
19292;DHT22;9779;51.756;7.450;2022-09-27T19:08:41;10.20;99.90
19292;DHT22;9779;51.756;7.450;2022-09-27T19:11:09;10.20;99.90
19292;DHT22;9779;51.756;7.450;2022-09-27T19:13:35;10.20;99.90
19292;DHT22;9779;51.756;7.450;2022-09-27T19:16:01;10.20;99.90
19292;DHT22;9779;51.756;7.450;2022-09-27T19:18:28;10.20;99.90
19292;DHT22;9779;51.756;7.450;2022-09-27T19:21:00;10.20;99.90
19292;DHT22;9779;51.756;7.450;2022-09-27T19:23:26;10.20;99.90
19292;DHT22;9779;51.756;7.450;2022-09-27T19:25:52;10.20;99.90
19292;DHT22;9779;51.756;7.450;2022-09-27T19:28:17;10.20;99.90
19292;DHT22;9779;51.756;7.450;2022-09-27T19:30:44;10.20;99.90
19292;DHT22;9779;51.756;7.450;2022-09-27T19:33:10;10.10;99.90
19292;DHT22;9779;51.756;7.450;2022-09-27T19:35:36;10.10;99.90
19292;DHT22;9779;51.756;7.450;2022-09-27T19:38:01;10.00;99.90
19292;DHT22;9779;51.756;7.450;2022-09-27T19:40:27;10.00;99.90
19292;DHT22;9779;51.756;7.450;2022-09-27T19:42:56;10.00;99.90
19292;DHT22;9779;51.756;7.450;2022-09-27T19:45:21;9.90;99.90
19292;DHT22;9779;51.756;7.450;2022-09-27T19:47:47;9.90;99.90